createdAt,value
2023-03-04T00:02:26.390Z,56.60
2023-03-04T00:04:53.304Z,35.83
2023-03-04T00:07:20.537Z,39.50
2023-03-04T00:09:47.528Z,36.72
2023-03-04T00:12:14.509Z,37.30
2023-03-04T00:14:41.658Z,40.97
2023-03-04T00:17:09.414Z,36.17
2023-03-04T00:19:36.636Z,36.50
2023-03-04T00:22:04.584Z,37.63
2023-03-04T00:24:32.151Z,37.78
2023-03-04T00:26:59.342Z,35.67
2023-03-04T00:29:26.597Z,35.38
2023-03-04T00:31:53.786Z,35.22
2023-03-04T00:34:21.107Z,35.92
2023-03-04T00:36:48.594Z,36.22
2023-03-04T00:39:15.765Z,37.30
2023-03-04T00:41:42.714Z,35.85
2023-03-04T00:44:09.853Z,35.20
2023-03-04T00:46:36.794Z,36.00
2023-03-04T00:49:03.966Z,37.22
2023-03-04T00:51:30.919Z,34.15
2023-03-04T00:54:00.370Z,32.17
2023-03-04T00:56:27.787Z,35.53
2023-03-04T00:58:54.999Z,33.28
2023-03-04T01:01:22.102Z,34.20
2023-03-04T01:03:49.054Z,33.67
2023-03-04T01:06:16.084Z,32.70
2023-03-04T01:08:43.180Z,33.35
2023-03-04T01:11:10.317Z,31.27
2023-03-04T01:13:37.462Z,32.28
2023-03-04T01:16:05.232Z,34.10
2023-03-04T01:18:32.350Z,33.63
2023-03-04T01:20:59.328Z,34.10
2023-03-04T01:23:26.331Z,35.03
2023-03-04T01:25:53.405Z,36.17
2023-03-04T01:28:20.285Z,36.10
2023-03-04T01:30:48.205Z,37.58
2023-03-04T01:33:15.107Z,33.92
2023-03-04T01:35:42.574Z,33.38
2023-03-04T01:38:09.529Z,35.03
2023-03-04T01:40:37.993Z,35.75
2023-03-04T01:43:05.561Z,34.63
2023-03-04T01:45:35.809Z,33.88
2023-03-04T01:48:02.810Z,34.05
2023-03-04T01:50:35.105Z,34.78
2023-03-04T01:53:02.998Z,31.83
2023-03-04T01:55:30.691Z,33.58
2023-03-04T01:57:57.627Z,33.67
2023-03-04T02:00:30.553Z,34.25
2023-03-04T02:05:27.237Z,33.88
2023-03-04T02:07:57.122Z,34.00
2023-03-04T02:10:24.668Z,32.83
2023-03-04T02:12:52.463Z,33.88
2023-03-04T02:15:20.206Z,33.10
2023-03-04T02:17:47.395Z,33.47
2023-03-04T02:20:38.454Z,33.50
2023-03-04T02:23:25.391Z,33.83
2023-03-04T02:26:30.524Z,32.58
2023-03-04T02:28:59.799Z,31.90
2023-03-04T02:31:44.640Z,31.45
2023-03-04T02:34:15.391Z,31.35
2023-03-04T02:36:43.936Z,30.63
2023-03-04T02:39:26.044Z,32.72
2023-03-04T02:41:55.095Z,28.48
2023-03-04T02:44:29.023Z,28.65
2023-03-04T02:46:57.923Z,25.63
2023-03-04T02:49:27.846Z,26.63
2023-03-04T02:52:01.039Z,26.27
2023-03-04T02:54:28.750Z,27.08
2023-03-04T02:56:58.900Z,25.77
2023-03-04T02:59:26.233Z,24.77
2023-03-04T03:01:53.741Z,23.10
2023-03-04T03:04:22.702Z,24.52
2023-03-04T03:06:52.613Z,24.17
2023-03-04T03:09:20.231Z,27.95
2023-03-04T03:11:47.520Z,26.42
2023-03-04T03:14:15.125Z,25.10
2023-03-04T03:16:42.103Z,25.85
2023-03-04T03:19:09.035Z,23.13
2023-03-04T03:21:36.896Z,25.13
2023-03-04T03:24:04.460Z,23.88
2023-03-04T03:26:31.368Z,25.33
2023-03-04T03:28:58.252Z,23.15
2023-03-04T03:31:25.243Z,22.48
2023-03-04T03:33:52.209Z,23.75
2023-03-04T03:36:19.139Z,25.27
2023-03-04T03:38:46.027Z,23.80
2023-03-04T03:41:12.957Z,23.55
2023-03-04T03:43:39.967Z,23.73
2023-03-04T03:46:06.911Z,23.48
2023-03-04T03:48:33.808Z,24.65
2023-03-04T03:51:01.931Z,23.60
2023-03-04T03:53:28.784Z,23.98
2023-03-04T03:55:56.119Z,22.55
2023-03-04T03:58:23.354Z,23.60
2023-03-04T04:00:50.380Z,22.20
2023-03-04T04:03:17.719Z,22.80
2023-03-04T04:05:44.678Z,22.80
2023-03-04T04:08:14.493Z,22.90
2023-03-04T04:10:42.118Z,23.08
2023-03-04T04:13:09.873Z,21.73
2023-03-04T04:15:38.737Z,22.42
2023-03-04T04:18:07.080Z,22.42
2023-03-04T04:20:34.437Z,24.60
2023-03-04T04:23:01.750Z,24.65
2023-03-04T04:25:28.937Z,23.23
2023-03-04T04:27:56.145Z,22.40
2023-03-04T04:30:23.157Z,23.05
2023-03-04T04:32:50.036Z,24.05
2023-03-04T04:35:17.236Z,23.13
2023-03-04T04:37:44.059Z,22.35
2023-03-04T04:40:11.740Z,23.80
2023-03-04T04:42:38.646Z,23.27
2023-03-04T04:45:06.206Z,23.02
2023-03-04T04:47:33.291Z,23.70
2023-03-04T04:50:00.190Z,24.67
2023-03-04T04:52:27.140Z,23.30
2023-03-04T04:54:54.069Z,23.38
2023-03-04T04:57:21.040Z,23.80
2023-03-04T04:59:48.595Z,21.73
2023-03-04T05:02:15.746Z,22.73
2023-03-04T05:04:42.661Z,22.60
2023-03-04T05:07:09.571Z,23.10
2023-03-04T05:09:36.440Z,23.38
2023-03-04T05:12:03.513Z,22.48
2023-03-04T05:14:30.431Z,23.27
2023-03-04T05:16:57.471Z,23.98
2023-03-04T05:19:24.578Z,23.75
2023-03-04T05:21:51.585Z,24.65
2023-03-04T05:24:18.678Z,23.73
2023-03-04T05:26:45.996Z,23.75
2023-03-04T05:29:12.976Z,23.25
2023-03-04T05:31:40.172Z,24.10
2023-03-04T05:34:07.747Z,22.52
2023-03-04T05:36:35.056Z,22.30
2023-03-04T05:39:01.975Z,23.13
2023-03-04T05:41:28.978Z,23.35
2023-03-04T05:43:56.518Z,25.40
2023-03-04T05:46:25.697Z,24.00
2023-03-04T05:48:54.266Z,23.70
2023-03-04T05:51:22.243Z,24.95
2023-03-04T05:53:52.262Z,23.92
2023-03-04T05:56:20.540Z,25.02
2023-03-04T05:58:47.872Z,23.33
2023-03-04T06:01:14.964Z,23.48
2023-03-04T06:03:43.446Z,23.70
2023-03-04T06:06:10.496Z,24.30
2023-03-04T06:08:37.553Z,23.67
2023-03-04T06:11:05.667Z,23.77
2023-03-04T06:13:34.824Z,23.90
2023-03-04T06:16:01.867Z,24.50
2023-03-04T06:18:29.589Z,24.23
2023-03-04T06:21:01.789Z,24.50
2023-03-04T06:23:29.448Z,26.00
2023-03-04T06:25:58.401Z,25.63
2023-03-04T06:28:25.803Z,25.65
2023-03-04T06:30:54.023Z,24.58
2023-03-04T06:33:20.965Z,24.58
2023-03-04T06:35:48.496Z,26.60
2023-03-04T06:38:15.702Z,26.58
2023-03-04T06:40:42.732Z,24.77
2023-03-04T06:43:09.741Z,24.63
2023-03-04T06:45:39.467Z,25.42
2023-03-04T06:48:06.554Z,25.77
2023-03-04T06:50:33.489Z,25.90
2023-03-04T06:53:00.412Z,23.83
2023-03-04T06:55:27.471Z,24.73
2023-03-04T06:57:54.434Z,24.63
2023-03-04T07:00:24.047Z,28.33
2023-03-04T07:02:52.885Z,25.88
2023-03-04T07:05:20.887Z,29.95
2023-03-04T07:07:48.458Z,28.50
2023-03-04T07:10:15.409Z,26.75
2023-03-04T07:12:42.400Z,25.15
2023-03-04T07:15:09.918Z,26.50
2023-03-04T07:17:36.959Z,25.30
2023-03-04T07:20:04.186Z,25.45
2023-03-04T07:22:31.412Z,31.70
2023-03-04T07:24:58.294Z,30.75
2023-03-04T07:27:25.670Z,34.00
2023-03-04T07:29:52.598Z,34.05
2023-03-04T07:32:19.777Z,33.00
2023-03-04T07:34:46.710Z,31.42
2023-03-04T07:37:13.634Z,30.60
2023-03-04T07:39:40.563Z,29.10
2023-03-04T07:42:07.545Z,28.52
2023-03-04T07:44:39.625Z,29.57
2023-03-04T07:47:06.536Z,28.27
2023-03-04T07:49:33.401Z,24.95
2023-03-04T07:52:04.251Z,24.48
2023-03-04T07:54:31.140Z,24.00
2023-03-04T07:56:58.089Z,24.17
2023-03-04T07:59:25.094Z,24.50
2023-03-04T08:01:52.046Z,26.17
2023-03-04T08:04:19.006Z,26.52
2023-03-04T08:06:45.924Z,25.50
2023-03-04T08:09:14.022Z,24.85
2023-03-04T08:11:41.145Z,25.77
2023-03-04T08:14:09.245Z,24.77
2023-03-04T08:16:36.227Z,27.30
2023-03-04T08:19:03.919Z,25.75
2023-03-04T08:21:31.147Z,28.23
2023-03-04T08:24:01.821Z,25.52
2023-03-04T08:26:40.751Z,25.67
2023-03-04T08:29:10.653Z,26.73
2023-03-04T08:31:39.410Z,26.15
2023-03-04T08:34:10.558Z,27.90
2023-03-04T08:36:37.625Z,27.48
2023-03-04T08:39:05.792Z,26.75
2023-03-04T08:41:33.026Z,30.10
2023-03-04T08:44:00.780Z,28.40
2023-03-04T08:46:28.321Z,28.30
2023-03-04T08:48:55.277Z,29.83
2023-03-04T08:51:22.773Z,29.35
2023-03-04T08:53:49.887Z,29.48
2023-03-04T08:56:18.342Z,28.50
2023-03-04T08:58:45.382Z,28.67
2023-03-04T09:01:14.141Z,32.25
2023-03-04T09:03:41.985Z,29.48
2023-03-04T09:06:11.813Z,29.23
2023-03-04T09:08:38.700Z,30.90
2023-03-04T09:11:05.896Z,29.38
2023-03-04T09:13:33.255Z,30.98
2023-03-04T09:16:00.538Z,30.67
2023-03-04T09:18:28.243Z,29.30
2023-03-04T09:20:55.312Z,32.50
2023-03-04T09:23:22.862Z,30.67
2023-03-04T09:25:49.892Z,31.05
2023-03-04T09:28:17.958Z,31.95
2023-03-04T09:30:45.084Z,32.35
2023-03-04T09:33:12.221Z,31.23
2023-03-04T09:35:39.117Z,31.90
2023-03-04T09:38:06.243Z,30.42
2023-03-04T09:40:48.414Z,30.80
2023-03-04T09:43:29.464Z,31.73
2023-03-04T09:46:07.477Z,30.13
2023-03-04T09:48:47.940Z,30.52
2023-03-04T09:51:43.995Z,30.92
2023-03-04T09:54:52.938Z,32.00
2023-03-04T09:57:34.871Z,30.88
2023-03-04T10:00:19.999Z,30.63
2023-03-04T10:03:33.294Z,28.98
2023-03-04T10:06:05.425Z,31.30
2023-03-04T10:09:16.404Z,30.37
2023-03-04T10:11:47.975Z,29.60
2023-03-04T10:14:32.968Z,30.55
2023-03-04T10:17:03.584Z,30.52
2023-03-04T10:19:38.764Z,28.52
2023-03-04T10:22:28.248Z,28.38
2023-03-04T10:24:57.980Z,28.30
2023-03-04T10:27:25.694Z,29.15
2023-03-04T10:29:52.615Z,30.15
2023-03-04T10:32:20.938Z,30.00
2023-03-04T10:34:48.034Z,30.52
2023-03-04T10:37:15.158Z,30.25
2023-03-04T10:39:45.298Z,30.45
2023-03-04T10:42:15.480Z,31.10
2023-03-04T10:44:55.470Z,31.33
2023-03-04T10:47:31.365Z,30.35
2023-03-04T10:50:05.604Z,29.05
2023-03-04T10:52:40.312Z,29.08
2023-03-04T10:55:16.245Z,29.05
2023-03-04T10:57:47.743Z,31.30
2023-03-04T11:00:17.625Z,30.27
2023-03-04T11:02:46.328Z,30.58
2023-03-04T11:05:21.946Z,31.35
2023-03-04T11:07:56.728Z,28.73
2023-03-04T11:10:36.517Z,28.70
2023-03-04T11:13:25.824Z,30.65
2023-03-04T11:15:59.078Z,28.45
2023-03-04T11:18:43.847Z,29.50
2023-03-04T11:21:23.069Z,28.08
2023-03-04T11:24:26.062Z,28.42
2023-03-04T11:26:56.613Z,27.05
2023-03-04T11:29:32.540Z,30.00
2023-03-04T11:32:23.742Z,29.10
2023-03-04T11:35:21.797Z,29.33
2023-03-04T11:38:19.824Z,27.77
2023-03-04T11:40:54.249Z,25.30
2023-03-04T11:43:37.763Z,25.70
2023-03-04T11:46:23.321Z,25.38
2023-03-04T11:49:24.442Z,27.42
2023-03-04T11:52:10.504Z,26.98
2023-03-04T11:54:55.556Z,26.05
2023-03-04T11:57:31.600Z,27.23
2023-03-04T12:00:30.618Z,28.83
2023-03-04T12:03:22.200Z,34.83
2023-03-04T12:06:10.973Z,27.70
2023-03-04T12:08:40.826Z,28.40
2023-03-04T12:11:40.244Z,28.23
2023-03-04T12:14:36.468Z,26.20
2023-03-04T12:17:23.251Z,25.77
2023-03-04T12:20:18.162Z,26.75
2023-03-04T12:22:46.905Z,26.50
2023-03-04T12:25:38.254Z,27.70
2023-03-04T12:28:30.065Z,25.98
2023-03-04T12:31:37.299Z,28.00
2023-03-04T12:34:22.496Z,27.13
2023-03-04T12:37:11.287Z,26.80
2023-03-04T12:39:59.520Z,27.10
2023-03-04T12:42:58.407Z,27.40
2023-03-04T12:45:46.359Z,31.27
2023-03-04T12:48:19.432Z,27.50
2023-03-04T12:50:58.197Z,27.23
2023-03-04T12:53:54.440Z,26.83
2023-03-04T12:56:31.593Z,27.10
2023-03-04T12:58:59.983Z,28.02
2023-03-04T13:01:49.229Z,27.08
2023-03-04T13:04:40.902Z,27.42
2023-03-04T13:07:24.790Z,26.77
2023-03-04T13:09:58.757Z,27.63
2023-03-04T13:12:25.797Z,26.80
2023-03-04T13:15:08.026Z,26.08
2023-03-04T13:17:37.838Z,28.57
2023-03-04T13:20:31.142Z,26.45
2023-03-04T13:23:10.319Z,25.77
2023-03-04T13:25:55.356Z,25.70
2023-03-04T13:28:45.652Z,24.25
2023-03-04T13:31:16.861Z,24.92
2023-03-04T13:33:58.486Z,25.58
2023-03-04T13:36:35.132Z,26.70
2023-03-04T13:39:25.602Z,25.88
2023-03-04T13:41:55.454Z,26.52
2023-03-04T13:44:45.731Z,24.88
2023-03-04T13:47:22.452Z,23.95
2023-03-04T13:49:49.521Z,24.58
2023-03-04T13:52:41.600Z,25.35
2023-03-04T13:55:38.739Z,26.00
2023-03-04T13:58:23.858Z,25.25
2023-03-04T14:00:55.775Z,24.08
2023-03-04T14:03:29.205Z,23.83
2023-03-04T14:06:11.485Z,24.75
2023-03-04T14:08:38.323Z,23.47
2023-03-04T14:11:05.235Z,22.95
2023-03-04T14:13:32.250Z,23.45
2023-03-04T14:16:00.250Z,23.50
2023-03-04T14:18:28.209Z,22.48
2023-03-04T14:20:59.052Z,24.52
2023-03-04T14:23:36.377Z,23.30
2023-03-04T14:26:18.261Z,25.35
2023-03-04T14:28:49.459Z,21.08
2023-03-04T14:31:19.408Z,21.58
2023-03-04T14:33:59.821Z,23.00
2023-03-04T14:36:27.493Z,24.63
2023-03-04T14:38:58.002Z,23.00
2023-03-04T14:41:27.459Z,21.20
2023-03-04T14:44:19.974Z,23.23
2023-03-04T14:47:06.501Z,20.07
2023-03-04T14:49:36.808Z,22.00
2023-03-04T14:52:03.963Z,20.50
2023-03-04T14:54:30.996Z,17.20
2023-03-04T14:56:59.557Z,18.73
2023-03-04T14:59:36.407Z,20.38
2023-03-04T15:02:19.659Z,20.27
2023-03-04T15:04:48.187Z,17.85
2023-03-04T15:07:39.193Z,19.58
2023-03-04T15:10:12.555Z,20.38
2023-03-04T15:12:39.560Z,21.80
2023-03-04T15:15:41.707Z,20.98
2023-03-04T15:18:26.535Z,23.95
2023-03-04T15:21:05.463Z,21.83
2023-03-04T15:23:34.132Z,21.27
2023-03-04T15:26:09.166Z,22.77
2023-03-04T15:28:38.204Z,21.90
2023-03-04T15:31:17.264Z,22.92
2023-03-04T15:33:44.224Z,24.10
2023-03-04T15:36:15.580Z,22.92
2023-03-04T15:38:47.663Z,24.15
2023-03-04T15:41:25.015Z,21.67
2023-03-04T15:43:53.173Z,23.08
2023-03-04T15:46:20.897Z,22.10
2023-03-04T15:48:48.897Z,23.67
2023-03-04T15:51:22.315Z,25.38
2023-03-04T15:53:58.314Z,25.25
2023-03-04T15:56:31.500Z,25.00
2023-03-04T15:59:07.047Z,25.45
2023-03-04T16:01:33.980Z,26.52
2023-03-04T16:04:00.935Z,24.77
2023-03-04T16:06:32.515Z,28.00
2023-03-04T16:09:00.304Z,29.00
2023-03-04T16:11:30.088Z,27.30
2023-03-04T16:13:57.023Z,28.50
2023-03-04T16:16:24.035Z,27.20
2023-03-04T16:18:50.882Z,26.83
2023-03-04T16:21:20.370Z,27.40
2023-03-04T16:23:49.799Z,26.30
2023-03-04T16:26:23.158Z,27.38
2023-03-04T16:28:54.012Z,27.27
2023-03-04T16:31:22.076Z,27.55
2023-03-04T16:33:49.184Z,27.85
2023-03-04T16:36:28.962Z,27.40
2023-03-04T16:38:56.894Z,24.77
2023-03-04T16:41:28.332Z,25.02
2023-03-04T16:43:56.737Z,27.58
2023-03-04T16:46:24.074Z,26.20
2023-03-04T16:48:51.001Z,26.05
2023-03-04T16:51:21.026Z,28.15
2023-03-04T16:53:53.215Z,25.92
2023-03-04T16:56:20.700Z,25.35
2023-03-04T16:58:48.154Z,26.40
2023-03-04T17:01:20.761Z,26.23
2023-03-04T17:03:48.799Z,25.48
2023-03-04T17:06:16.643Z,25.85
2023-03-04T17:08:43.829Z,27.88
2023-03-04T17:11:18.804Z,28.48
2023-03-04T17:13:46.569Z,27.70
2023-03-04T17:16:15.282Z,30.90
2023-03-04T17:18:42.922Z,29.40
2023-03-04T17:21:12.912Z,29.23
2023-03-04T17:23:39.814Z,28.63
2023-03-04T17:26:06.904Z,26.63
2023-03-04T17:28:33.956Z,26.45
2023-03-04T17:31:01.651Z,29.17
2023-03-04T17:33:28.621Z,26.58
2023-03-04T17:35:57.861Z,27.88
2023-03-04T17:38:24.967Z,27.50
2023-03-04T17:40:51.772Z,26.92
2023-03-04T17:43:18.681Z,28.73
2023-03-04T17:45:45.551Z,29.42
2023-03-04T17:48:15.244Z,30.35
2023-03-04T17:50:50.079Z,27.90
2023-03-04T17:53:17.538Z,31.73
2023-03-04T17:56:03.024Z,30.05
2023-03-04T17:58:31.462Z,33.97
2023-03-04T18:01:21.736Z,33.55
2023-03-04T18:03:49.147Z,34.10
2023-03-04T18:06:17.230Z,34.65
2023-03-04T18:08:44.796Z,35.25
2023-03-04T18:11:12.358Z,35.45
2023-03-04T18:13:43.720Z,33.05
2023-03-04T18:16:14.090Z,32.38
2023-03-04T18:18:41.074Z,35.58
2023-03-04T18:21:08.660Z,37.65
2023-03-04T18:23:35.859Z,38.17
2023-03-04T18:26:04.385Z,33.33
2023-03-04T18:28:31.810Z,34.17
2023-03-04T18:30:58.708Z,31.98
2023-03-04T18:33:25.669Z,30.15
2023-03-04T18:35:59.045Z,31.23
2023-03-04T18:38:26.198Z,31.92
2023-03-04T18:40:57.191Z,31.27
2023-03-04T18:43:24.118Z,31.40
2023-03-04T18:46:19.908Z,31.52
2023-03-04T18:48:54.897Z,30.42
2023-03-04T18:51:22.156Z,28.40
2023-03-04T18:53:49.116Z,26.33
2023-03-04T18:56:22.271Z,26.88
2023-03-04T18:58:51.502Z,26.40
2023-03-04T19:01:22.401Z,27.63
2023-03-04T19:03:50.632Z,26.60
2023-03-04T19:06:18.124Z,26.23
2023-03-04T19:08:44.988Z,25.80
2023-03-04T19:11:11.883Z,25.02
2023-03-04T19:13:38.801Z,25.67
2023-03-04T19:16:06.039Z,28.23
2023-03-04T19:18:33.154Z,27.08
2023-03-04T19:21:00.945Z,26.17
2023-03-04T19:23:29.397Z,24.83
2023-03-04T19:25:56.328Z,23.92
2023-03-04T19:28:24.322Z,21.30
2023-03-04T19:30:53.108Z,23.50
2023-03-04T19:33:20.564Z,23.55
2023-03-04T19:35:47.963Z,23.33
2023-03-04T19:38:14.958Z,22.80
2023-03-04T19:40:43.426Z,23.60
2023-03-04T19:43:10.402Z,22.13
2023-03-04T19:45:37.297Z,24.83
2023-03-04T19:48:04.770Z,20.83
2023-03-04T19:50:32.721Z,20.50
2023-03-04T19:52:59.794Z,21.73
2023-03-04T19:55:26.755Z,23.17
2023-03-04T19:57:53.710Z,23.13
2023-03-04T20:00:23.376Z,22.83
2023-03-04T20:02:50.942Z,19.98
2023-03-04T20:05:18.075Z,21.85
2023-03-04T20:07:45.033Z,20.65
2023-03-04T20:10:12.599Z,19.10
2023-03-04T20:12:39.574Z,20.27
2023-03-04T20:15:08.300Z,20.48
2023-03-04T20:17:35.520Z,21.30
2023-03-04T20:20:02.673Z,20.05
2023-03-04T20:22:30.364Z,19.60
2023-03-04T20:24:57.374Z,19.08
2023-03-04T20:27:24.484Z,20.15
2023-03-04T20:29:51.419Z,19.40
2023-03-04T20:32:18.411Z,22.42
2023-03-04T20:34:45.375Z,20.33
2023-03-04T20:37:12.308Z,21.52
2023-03-04T20:39:39.169Z,20.60
2023-03-04T20:42:06.697Z,22.08
2023-03-04T20:44:35.546Z,19.63
2023-03-04T20:47:03.247Z,20.42
2023-03-04T20:49:30.415Z,20.20
2023-03-04T20:52:08.325Z,26.88
2023-03-04T20:54:37.442Z,22.13
2023-03-04T20:57:07.912Z,24.17
2023-03-04T20:59:35.997Z,19.33
2023-03-04T21:02:02.914Z,20.60
2023-03-04T21:04:32.515Z,20.55
2023-03-04T21:07:01.691Z,20.67
2023-03-04T21:09:28.870Z,21.40
2023-03-04T21:11:55.790Z,19.38
2023-03-04T21:14:29.187Z,19.70
2023-03-04T21:17:02.644Z,18.90
2023-03-04T21:19:36.170Z,21.85
2023-03-04T21:22:03.946Z,20.55
2023-03-04T21:24:34.415Z,20.95
2023-03-04T21:27:02.439Z,18.55
2023-03-04T21:29:29.469Z,20.02
2023-03-04T21:32:09.774Z,19.42
2023-03-04T21:34:48.450Z,19.35
2023-03-04T21:37:15.377Z,20.33
2023-03-04T21:39:42.321Z,18.73
2023-03-04T21:42:09.234Z,19.63
2023-03-04T21:44:48.646Z,19.95
2023-03-04T21:47:16.044Z,18.10
2023-03-04T21:49:43.062Z,18.90
2023-03-04T21:52:10.005Z,24.60
2023-03-04T21:54:37.232Z,25.27
2023-03-04T21:57:04.297Z,22.13
2023-03-04T21:59:31.269Z,22.58
2023-03-04T22:01:58.285Z,26.08
2023-03-04T22:04:25.182Z,24.48
2023-03-04T22:06:52.112Z,24.52
2023-03-04T22:09:19.203Z,22.67
2023-03-04T22:11:46.134Z,21.92
2023-03-04T22:14:13.586Z,23.10
2023-03-04T22:16:54.044Z,21.80
2023-03-04T22:19:23.717Z,26.55
2023-03-04T22:21:51.614Z,27.83
2023-03-04T22:24:19.371Z,25.52
2023-03-04T22:26:46.352Z,24.85
2023-03-04T22:29:13.283Z,25.98
2023-03-04T22:31:40.264Z,22.27
2023-03-04T22:34:09.916Z,24.50
2023-03-04T22:36:39.730Z,26.58
2023-03-04T22:39:09.227Z,21.95
2023-03-04T22:41:36.880Z,20.65
2023-03-04T22:44:06.274Z,20.40
2023-03-04T22:46:35.968Z,23.20
2023-03-04T22:49:06.334Z,21.40
2023-03-04T22:51:33.260Z,23.15
2023-03-04T22:54:00.253Z,23.13
2023-03-04T22:56:27.217Z,25.00
2023-03-04T22:58:54.148Z,23.30
2023-03-04T23:01:21.412Z,24.20
2023-03-04T23:03:49.665Z,18.67
2023-03-04T23:06:19.645Z,19.92
2023-03-04T23:08:48.704Z,18.67
2023-03-04T23:11:22.132Z,19.65
2023-03-04T23:13:50.216Z,19.02
2023-03-04T23:16:18.372Z,20.48
2023-03-04T23:18:47.334Z,21.05
2023-03-04T23:21:20.309Z,20.00
2023-03-04T23:26:23.040Z,22.10
2023-03-04T23:28:50.888Z,23.60
2023-03-04T23:31:19.088Z,22.73
2023-03-04T23:33:47.897Z,20.73
2023-03-04T23:36:17.211Z,19.33
2023-03-04T23:38:46.124Z,19.88
2023-03-04T23:41:18.432Z,19.08
2023-03-04T23:43:46.513Z,19.63
2023-03-04T23:46:14.181Z,19.35
2023-03-04T23:48:46.407Z,20.10
2023-03-04T23:51:17.410Z,19.33
2023-03-04T23:53:45.672Z,19.50
2023-03-04T23:56:21.208Z,19.20
2023-03-04T23:58:49.079Z,19.75
